createdAt,value
2018-12-09T00:01:10.870Z,21.53
2018-12-09T00:03:38.398Z,19.67
2018-12-09T00:06:05.913Z,23.60
2018-12-09T00:08:33.493Z,21.33
2018-12-09T00:11:01.013Z,21.80
2018-12-09T00:13:28.539Z,26.47
2018-12-09T00:15:56.048Z,22.20
2018-12-09T00:18:23.553Z,19.10
2018-12-09T00:20:51.066Z,18.17
2018-12-09T00:23:18.569Z,17.90
2018-12-09T00:25:46.081Z,24.13
2018-12-09T00:28:14.241Z,16.90
2018-12-09T00:30:41.723Z,20.17
2018-12-09T00:33:09.403Z,25.47
2018-12-09T00:35:37.684Z,20.47
2018-12-09T00:38:05.287Z,27.63
2018-12-09T00:40:32.810Z,25.67
2018-12-09T00:43:00.313Z,26.30
2018-12-09T00:45:27.791Z,23.40
2018-12-09T00:47:55.303Z,18.40
2018-12-09T00:50:22.790Z,23.87
2018-12-09T00:52:50.676Z,29.60
2018-12-09T00:55:18.168Z,16.57
2018-12-09T00:57:46.249Z,17.77
2018-12-09T01:00:14.033Z,21.03
2018-12-09T01:02:42.950Z,16.47
2018-12-09T01:05:10.734Z,22.87
2018-12-09T01:07:38.334Z,17.90
2018-12-09T01:10:06.384Z,15.57
2018-12-09T01:12:33.884Z,26.70
2018-12-09T01:15:01.393Z,16.83
2018-12-09T01:17:28.887Z,15.33
2018-12-09T01:19:56.450Z,16.83
2018-12-09T01:22:23.950Z,17.50
2018-12-09T01:24:51.569Z,19.33
2018-12-09T01:27:19.091Z,21.00
2018-12-09T01:29:48.168Z,18.37
2018-12-09T01:32:16.368Z,19.53
2018-12-09T01:34:43.973Z,16.73
2018-12-09T01:37:11.514Z,16.90
2018-12-09T01:39:39.025Z,15.50
2018-12-09T01:42:06.583Z,22.23
2018-12-09T01:44:34.207Z,18.90
2018-12-09T01:47:01.709Z,22.83
2018-12-09T01:49:29.220Z,20.63
2018-12-09T01:51:56.733Z,16.87
2018-12-09T01:54:24.303Z,17.20
2018-12-09T01:56:51.805Z,14.13
2018-12-09T01:59:19.308Z,22.00
2018-12-09T02:01:46.803Z,17.97
2018-12-09T02:04:14.335Z,18.20
2018-12-09T02:06:41.842Z,18.40
2018-12-09T02:09:09.583Z,15.47
2018-12-09T02:11:37.321Z,15.80
2018-12-09T02:14:04.922Z,12.57
2018-12-09T02:16:32.936Z,15.53
2018-12-09T02:19:13.114Z,20.87
2018-12-09T02:21:41.230Z,18.30
2018-12-09T02:24:08.729Z,14.20
2018-12-09T02:26:36.242Z,16.70
2018-12-09T02:29:03.868Z,16.63
2018-12-09T02:31:32.261Z,21.57
2018-12-09T02:34:01.713Z,22.47
2018-12-09T02:36:29.459Z,21.03
2018-12-09T02:38:56.998Z,15.23
2018-12-09T02:41:24.585Z,22.83
2018-12-09T02:43:52.210Z,14.97
2018-12-09T02:46:19.680Z,18.83
2018-12-09T02:48:47.628Z,21.53
2018-12-09T02:51:15.196Z,19.50
2018-12-09T02:53:42.795Z,17.37
2018-12-09T02:56:10.378Z,17.13
2018-12-09T02:58:37.942Z,14.63
2018-12-09T03:01:05.873Z,14.20
2018-12-09T03:03:33.425Z,17.83
2018-12-09T03:06:00.919Z,19.53
2018-12-09T03:08:28.477Z,17.73
2018-12-09T03:10:55.967Z,17.03
2018-12-09T03:13:23.494Z,22.87
2018-12-09T03:15:51.017Z,18.33
2018-12-09T03:18:18.527Z,19.00
2018-12-09T03:20:46.154Z,17.73
2018-12-09T03:23:13.671Z,16.93
2018-12-09T03:25:41.235Z,17.63
2018-12-09T03:28:08.741Z,18.83
2018-12-09T03:30:36.235Z,19.83
2018-12-09T03:33:03.881Z,16.73
2018-12-09T03:35:31.380Z,21.80
2018-12-09T03:37:58.883Z,20.73
2018-12-09T03:40:26.458Z,17.83
2018-12-09T03:42:53.982Z,15.87
2018-12-09T03:45:21.626Z,19.07
2018-12-09T03:47:49.168Z,15.73
2018-12-09T03:50:16.748Z,15.30
2018-12-09T03:52:44.812Z,16.80
2018-12-09T03:55:12.396Z,17.90
2018-12-09T03:57:39.911Z,21.60
2018-12-09T04:00:07.668Z,18.83
2018-12-09T04:02:35.184Z,18.97
2018-12-09T04:05:02.838Z,15.37
2018-12-09T04:07:30.480Z,19.97
2018-12-09T04:09:58.208Z,17.97
2018-12-09T04:12:25.781Z,23.37
2018-12-09T04:14:53.275Z,20.17
2018-12-09T04:17:20.779Z,23.60
2018-12-09T04:19:48.271Z,21.87
2018-12-09T04:22:15.816Z,19.37
2018-12-09T04:24:43.314Z,21.23
2018-12-09T04:27:11.119Z,25.97
2018-12-09T04:29:38.626Z,22.83
2018-12-09T04:32:06.135Z,22.80
2018-12-09T04:34:33.661Z,20.77
2018-12-09T04:37:01.134Z,20.00
2018-12-09T04:39:28.941Z,20.97
2018-12-09T04:41:56.452Z,19.13
2018-12-09T04:44:23.953Z,22.20
2018-12-09T04:46:51.450Z,19.00
2018-12-09T04:49:18.952Z,20.43
2018-12-09T04:51:53.322Z,18.33
2018-12-09T04:54:20.830Z,16.87
2018-12-09T04:56:48.448Z,19.00
2018-12-09T04:59:19.567Z,21.83
2018-12-09T05:01:47.157Z,24.67
2018-12-09T05:04:14.650Z,17.03
2018-12-09T05:06:42.235Z,23.10
2018-12-09T05:09:09.725Z,20.57
2018-12-09T05:11:37.390Z,23.60
2018-12-09T05:14:05.699Z,19.87
2018-12-09T05:16:33.176Z,24.40
2018-12-09T05:19:01.070Z,23.93
2018-12-09T05:21:28.579Z,19.10
2018-12-09T05:23:56.094Z,21.43
2018-12-09T05:26:23.900Z,20.17
2018-12-09T05:28:51.491Z,23.47
2018-12-09T05:31:19.312Z,19.57
2018-12-09T05:33:46.878Z,25.27
2018-12-09T05:36:14.383Z,25.20
2018-12-09T05:38:42.210Z,29.37
2018-12-09T05:41:09.714Z,24.37
2018-12-09T05:43:37.214Z,17.73
2018-12-09T05:46:04.758Z,19.43
2018-12-09T05:48:32.286Z,21.60
2018-12-09T05:51:00.968Z,20.03
2018-12-09T05:53:28.479Z,14.87
2018-12-09T05:55:55.981Z,17.90
2018-12-09T05:58:25.474Z,16.27
2018-12-09T06:00:53.000Z,18.63
2018-12-09T06:03:20.943Z,19.83
2018-12-09T06:05:48.433Z,15.83
2018-12-09T06:08:15.956Z,20.53
2018-12-09T06:10:43.454Z,18.23
2018-12-09T06:13:11.072Z,17.10
2018-12-09T06:15:40.130Z,20.07
2018-12-09T06:18:07.619Z,22.30
2018-12-09T06:20:35.125Z,16.20
2018-12-09T06:23:02.612Z,24.67
2018-12-09T06:25:30.237Z,21.27
2018-12-09T06:27:58.222Z,15.13
2018-12-09T06:30:25.797Z,20.50
2018-12-09T06:32:53.296Z,20.23
2018-12-09T06:35:20.810Z,24.50
2018-12-09T06:37:48.364Z,18.03
2018-12-09T06:40:15.884Z,15.70
2018-12-09T06:42:43.391Z,20.43
2018-12-09T06:45:11.445Z,18.40
2018-12-09T06:47:39.611Z,24.90
2018-12-09T06:50:07.302Z,22.57
2018-12-09T06:52:34.792Z,19.57
2018-12-09T06:55:02.306Z,22.03
2018-12-09T06:57:29.893Z,19.27
2018-12-09T06:59:57.379Z,18.73
2018-12-09T07:02:24.871Z,20.57
2018-12-09T07:04:52.372Z,25.50
2018-12-09T07:07:20.192Z,21.10
2018-12-09T07:09:47.702Z,19.73
2018-12-09T07:12:15.189Z,23.20
2018-12-09T07:14:42.679Z,21.83
2018-12-09T07:17:10.206Z,16.53
2018-12-09T07:19:37.758Z,20.13
2018-12-09T07:22:05.256Z,16.67
2018-12-09T07:24:32.886Z,19.83
2018-12-09T07:27:00.399Z,21.47
2018-12-09T07:29:27.929Z,19.67
2018-12-09T07:31:55.436Z,23.00
2018-12-09T07:34:22.958Z,21.47
2018-12-09T07:36:50.784Z,26.23
2018-12-09T07:39:18.385Z,20.57
2018-12-09T07:41:45.897Z,22.30
2018-12-09T07:44:13.676Z,19.20
2018-12-09T07:46:41.722Z,21.60
2018-12-09T07:49:09.267Z,17.10
2018-12-09T07:51:36.777Z,21.27
2018-12-09T07:54:04.257Z,21.30
2018-12-09T07:56:32.018Z,19.37
2018-12-09T07:58:59.526Z,23.53
2018-12-09T08:01:27.155Z,18.87
2018-12-09T08:03:54.664Z,24.57
2018-12-09T08:06:22.371Z,23.53
2018-12-09T08:08:50.221Z,19.37
2018-12-09T08:11:17.732Z,23.87
2018-12-09T08:13:45.237Z,24.77
2018-12-09T08:16:12.741Z,19.43
2018-12-09T08:18:40.269Z,24.70
2018-12-09T08:21:09.136Z,17.27
2018-12-09T08:23:36.958Z,19.67
2018-12-09T08:26:04.467Z,18.57
2018-12-09T08:28:31.976Z,16.80
2018-12-09T08:30:59.480Z,18.30
2018-12-09T08:33:27.612Z,16.57
2018-12-09T08:35:55.143Z,15.20
2018-12-09T08:38:22.770Z,19.97
2018-12-09T08:40:50.267Z,19.43
2018-12-09T08:43:17.854Z,13.93
2018-12-09T08:45:45.390Z,15.17
2018-12-09T08:48:12.923Z,24.30
2018-12-09T08:50:40.487Z,20.67
2018-12-09T08:53:07.997Z,19.07
2018-12-09T08:55:35.501Z,20.20
2018-12-09T08:58:03.026Z,16.40
2018-12-09T09:00:30.637Z,15.60
2018-12-09T09:02:58.492Z,23.90
2018-12-09T09:05:26.006Z,15.60
2018-12-09T09:07:53.544Z,19.17
2018-12-09T09:10:22.094Z,20.30
2018-12-09T09:12:49.977Z,23.50
2018-12-09T09:15:17.965Z,15.57
2018-12-09T09:17:45.479Z,20.50
2018-12-09T09:20:13.134Z,14.60
2018-12-09T09:22:40.669Z,16.47
2018-12-09T09:25:08.171Z,15.13
2018-12-09T09:27:35.675Z,17.17
2018-12-09T09:30:04.234Z,10.73
2018-12-09T09:32:31.787Z,16.00
2018-12-09T09:34:59.279Z,12.33
2018-12-09T09:37:39.512Z,13.97
2018-12-09T09:40:07.200Z,13.00
2018-12-09T09:42:34.728Z,14.70
2018-12-09T09:45:02.214Z,15.13
2018-12-09T09:47:29.746Z,15.37
2018-12-09T09:49:57.319Z,13.10
2018-12-09T09:52:24.804Z,15.27
2018-12-09T09:54:52.362Z,15.83
2018-12-09T09:57:19.859Z,16.03
2018-12-09T09:59:47.395Z,12.07
2018-12-09T10:02:14.917Z,10.70
2018-12-09T10:04:42.421Z,14.23
2018-12-09T10:07:09.923Z,16.60
2018-12-09T10:09:37.445Z,18.10
2018-12-09T10:12:04.946Z,18.40
2018-12-09T10:14:32.448Z,18.30
2018-12-09T10:17:00.920Z,20.97
2018-12-09T10:19:28.420Z,22.30
2018-12-09T10:24:51.253Z,15.20
2018-12-09T10:27:18.801Z,11.53
2018-12-09T10:29:46.357Z,11.97
2018-12-09T10:32:13.893Z,19.37
2018-12-09T10:34:41.456Z,15.33
2018-12-09T10:37:08.997Z,12.60
2018-12-09T10:39:36.531Z,11.17
2018-12-09T10:42:04.049Z,11.87
2018-12-09T10:44:31.612Z,16.63
2018-12-09T10:46:59.117Z,13.40
2018-12-09T10:49:26.628Z,9.73
2018-12-09T10:51:54.142Z,10.00
2018-12-09T10:54:21.651Z,9.70
2018-12-09T10:56:49.202Z,11.13
2018-12-09T10:59:16.732Z,12.27
2018-12-09T11:01:46.405Z,14.33
2018-12-09T11:04:14.314Z,12.13
2018-12-09T11:06:42.073Z,10.77
2018-12-09T11:09:17.628Z,8.43
2018-12-09T11:11:45.181Z,11.20
2018-12-09T11:14:12.744Z,12.20
2018-12-09T11:16:40.306Z,6.23
2018-12-09T11:19:07.839Z,7.60
2018-12-09T11:21:35.381Z,6.13
2018-12-09T11:24:02.936Z,5.17
2018-12-09T11:26:30.478Z,7.13
2018-12-09T11:28:58.086Z,6.83
2018-12-09T11:34:20.457Z,8.10
2018-12-09T11:36:48.012Z,4.27
2018-12-09T11:39:15.531Z,6.07
2018-12-09T11:41:43.042Z,6.33
2018-12-09T11:44:10.651Z,3.70
2018-12-09T11:46:38.177Z,5.87
2018-12-09T11:49:05.663Z,4.43
2018-12-09T11:51:33.161Z,3.77
2018-12-09T11:54:00.773Z,4.00
2018-12-09T12:02:34.510Z,5.57
2018-12-09T12:05:02.052Z,4.17
2018-12-09T12:07:29.895Z,6.60
2018-12-09T12:09:57.443Z,4.03
2018-12-09T12:12:25.021Z,6.20
2018-12-09T12:14:52.586Z,6.07
2018-12-09T12:17:20.127Z,10.20
2018-12-09T12:19:47.783Z,6.10
2018-12-09T12:22:15.299Z,7.43
2018-12-09T12:24:43.536Z,5.23
2018-12-09T12:27:11.074Z,11.70
2018-12-09T12:29:38.639Z,7.07
2018-12-09T12:32:06.200Z,11.23
2018-12-09T12:34:33.717Z,8.70
2018-12-09T12:37:01.291Z,10.87
2018-12-09T12:39:29.786Z,8.87
2018-12-09T12:41:57.329Z,9.07
2018-12-09T12:44:24.948Z,6.00
2018-12-09T12:47:06.857Z,7.93
2018-12-09T12:49:34.476Z,10.40
2018-12-09T12:52:02.004Z,9.23
2018-12-09T12:54:29.542Z,7.00
2018-12-09T12:56:57.086Z,10.87
2018-12-09T12:59:24.595Z,10.50
2018-12-09T13:01:52.142Z,12.10
2018-12-09T13:04:19.675Z,7.60
2018-12-09T13:06:47.234Z,7.23
2018-12-09T13:09:14.733Z,12.10
2018-12-09T13:11:42.295Z,11.53
2018-12-09T13:14:09.857Z,11.50
2018-12-09T13:16:37.429Z,7.93
2018-12-09T13:19:04.995Z,8.87
2018-12-09T13:21:32.700Z,9.90
2018-12-09T13:24:01.716Z,7.73
2018-12-09T13:26:29.585Z,8.17
2018-12-09T13:28:57.124Z,9.03
2018-12-09T13:31:24.672Z,8.70
2018-12-09T13:33:52.550Z,10.40
2018-12-09T13:36:20.037Z,9.30
2018-12-09T13:38:47.556Z,5.60
2018-12-09T13:41:15.059Z,19.13
2018-12-09T13:43:42.593Z,7.83
2018-12-09T13:46:10.112Z,10.90
2018-12-09T13:48:37.629Z,16.33
2018-12-09T13:51:05.135Z,10.47
2018-12-09T13:53:32.629Z,8.73
2018-12-09T13:56:00.112Z,12.10
2018-12-09T13:58:27.620Z,16.73
2018-12-09T14:00:55.176Z,9.67
2018-12-09T14:03:23.533Z,11.23
2018-12-09T14:05:51.145Z,16.83
2018-12-09T14:08:18.640Z,4.53
2018-12-09T14:10:46.600Z,12.03
2018-12-09T14:13:14.665Z,13.10
2018-12-09T14:15:42.169Z,7.97
2018-12-09T14:18:09.707Z,6.80
2018-12-09T14:20:37.188Z,5.50
2018-12-09T14:23:05.019Z,7.97
2018-12-09T14:25:32.528Z,5.13
2018-12-09T14:28:00.021Z,8.70
2018-12-09T14:30:27.540Z,6.70
2018-12-09T14:32:55.089Z,9.57
2018-12-09T14:35:22.585Z,9.70
2018-12-09T14:37:50.095Z,12.30
2018-12-09T14:40:17.577Z,15.93
2018-12-09T14:42:45.079Z,15.60
2018-12-09T14:45:13.140Z,9.67
2018-12-09T14:47:40.643Z,10.43
2018-12-09T14:50:08.616Z,14.73
2018-12-09T14:52:36.333Z,16.27
2018-12-09T14:55:04.701Z,14.30
2018-12-09T14:57:32.223Z,17.43
2018-12-09T14:59:59.763Z,17.17
2018-12-09T15:02:27.266Z,26.37
2018-12-09T15:04:54.752Z,17.47
2018-12-09T15:07:22.285Z,17.37
2018-12-09T15:09:52.259Z,22.17
2018-12-09T15:12:19.752Z,24.53
2018-12-09T15:14:47.251Z,17.53
2018-12-09T15:17:14.737Z,22.80
2018-12-09T15:19:42.395Z,20.17
2018-12-09T15:22:09.919Z,26.03
2018-12-09T15:24:41.419Z,20.17
2018-12-09T15:27:06.974Z,19.17
2018-12-09T15:29:34.488Z,23.53
2018-12-09T15:32:02.536Z,16.50
2018-12-09T15:34:30.019Z,18.73
2018-12-09T15:36:57.516Z,18.53
2018-12-09T15:39:25.012Z,22.07
2018-12-09T15:41:52.505Z,22.60
2018-12-09T15:44:20.001Z,15.60
2018-12-09T15:46:47.856Z,14.50
2018-12-09T15:49:15.670Z,14.10
2018-12-09T15:51:43.163Z,12.53
2018-12-09T15:54:10.732Z,19.63
2018-12-09T15:56:38.227Z,13.87
2018-12-09T15:59:05.734Z,14.43
2018-12-09T16:01:33.239Z,17.77
2018-12-09T16:04:00.765Z,15.20
2018-12-09T16:06:28.271Z,11.67
2018-12-09T16:08:55.828Z,16.60
2018-12-09T16:11:25.043Z,15.33
2018-12-09T16:13:52.600Z,13.73
2018-12-09T16:16:20.106Z,19.17
2018-12-09T16:18:47.609Z,16.83
2018-12-09T16:21:15.110Z,15.63
2018-12-09T16:23:42.606Z,15.23
2018-12-09T16:26:10.108Z,10.80
2018-12-09T16:28:37.641Z,20.40
2018-12-09T16:31:05.135Z,20.97
2018-12-09T16:33:32.603Z,17.67
2018-12-09T16:36:00.174Z,18.10
2018-12-09T16:38:27.717Z,13.40
2018-12-09T16:40:55.198Z,14.67
2018-12-09T16:43:22.802Z,14.30
2018-12-09T16:45:50.410Z,12.90
2018-12-09T16:48:17.936Z,12.03
2018-12-09T16:50:45.445Z,9.93
2018-12-09T16:53:12.948Z,15.97
2018-12-09T16:55:40.521Z,15.57
2018-12-09T16:58:08.070Z,12.77
2018-12-09T17:00:35.616Z,18.97
2018-12-09T17:03:05.022Z,15.60
2018-12-09T17:05:32.546Z,11.57
2018-12-09T17:08:00.054Z,12.97
2018-12-09T17:10:27.591Z,10.17
2018-12-09T17:12:55.109Z,11.07
2018-12-09T17:15:22.627Z,19.37
2018-12-09T17:17:50.147Z,10.67
2018-12-09T17:20:17.676Z,15.87
2018-12-09T17:22:45.480Z,18.43
2018-12-09T17:25:12.989Z,11.97
2018-12-09T17:27:40.503Z,14.03
2018-12-09T17:30:08.167Z,13.33
2018-12-09T17:32:35.692Z,16.47
2018-12-09T17:35:03.354Z,13.93
2018-12-09T17:37:30.859Z,14.47
2018-12-09T17:39:58.411Z,12.20
2018-12-09T17:42:25.998Z,11.83
2018-12-09T17:44:53.550Z,13.13
2018-12-09T17:47:21.067Z,19.47
2018-12-09T17:49:48.551Z,14.30
2018-12-09T17:52:16.167Z,15.83
2018-12-09T17:54:43.645Z,9.53
2018-12-09T17:57:11.140Z,15.40
2018-12-09T17:59:38.635Z,10.90
2018-12-09T18:02:06.138Z,8.43
2018-12-09T18:04:33.663Z,12.50
2018-12-09T18:07:01.169Z,13.80
2018-12-09T18:09:28.671Z,11.03
2018-12-09T18:11:56.174Z,14.70
2018-12-09T18:14:23.682Z,12.50
2018-12-09T18:16:51.199Z,10.93
2018-12-09T18:19:18.718Z,13.23
2018-12-09T18:21:46.277Z,13.43
2018-12-09T18:24:14.088Z,10.40
2018-12-09T18:26:41.610Z,11.03
2018-12-09T18:29:09.143Z,16.87
2018-12-09T18:31:36.630Z,11.03
2018-12-09T18:34:04.114Z,9.73
2018-12-09T18:36:33.989Z,12.50
2018-12-09T18:39:01.518Z,12.83
2018-12-09T18:41:29.033Z,10.37
2018-12-09T18:43:57.465Z,7.67
2018-12-09T18:46:24.968Z,7.93
2018-12-09T18:48:53.333Z,9.33
2018-12-09T18:51:20.978Z,11.80
2018-12-09T18:53:48.506Z,9.53
2018-12-09T18:56:16.029Z,11.40
2018-12-09T18:58:43.523Z,15.33
2018-12-09T19:01:11.047Z,10.57
2018-12-09T19:03:38.553Z,8.10
2018-12-09T19:06:06.677Z,8.53
2018-12-09T19:08:35.144Z,12.43
2018-12-09T19:11:03.512Z,9.67
2018-12-09T19:13:31.027Z,10.47
2018-12-09T19:15:58.906Z,12.90
2018-12-09T19:18:26.397Z,13.03
2018-12-09T19:20:53.918Z,9.50
2018-12-09T19:23:21.423Z,11.60
2018-12-09T19:25:48.912Z,20.53
2018-12-09T19:28:16.415Z,13.83
2018-12-09T19:30:48.250Z,17.53
2018-12-09T19:33:13.457Z,13.20
2018-12-09T19:35:41.064Z,12.23
2018-12-09T19:38:08.594Z,15.67
2018-12-09T19:40:36.152Z,13.33
2018-12-09T19:43:03.651Z,14.63
2018-12-09T19:45:31.245Z,13.80
2018-12-09T19:47:58.740Z,15.53
2018-12-09T19:50:27.416Z,16.07
2018-12-09T19:52:54.929Z,13.93
2018-12-09T19:55:22.759Z,12.30
2018-12-09T19:57:50.255Z,15.97
2018-12-09T20:00:17.751Z,18.00
2018-12-09T20:02:45.271Z,22.77
2018-12-09T20:05:12.846Z,19.10
2018-12-09T20:07:40.353Z,17.17
2018-12-09T20:10:07.919Z,18.43
2018-12-09T20:12:35.407Z,11.23
2018-12-09T20:15:02.896Z,20.27
2018-12-09T20:17:30.391Z,11.00
2018-12-09T20:19:57.889Z,12.83
2018-12-09T20:22:25.503Z,12.17
2018-12-09T20:24:53.013Z,10.87
2018-12-09T20:27:20.535Z,11.40
2018-12-09T20:29:49.104Z,9.10
2018-12-09T20:32:16.756Z,13.43
2018-12-09T20:34:44.819Z,9.87
2018-12-09T20:37:12.315Z,11.13
2018-12-09T20:39:40.771Z,16.30
2018-12-09T20:42:08.278Z,9.50
2018-12-09T20:44:35.923Z,11.67
2018-12-09T20:47:03.459Z,10.63
2018-12-09T20:49:30.984Z,14.53
2018-12-09T20:51:58.496Z,14.37
2018-12-09T20:54:25.995Z,16.60
2018-12-09T20:56:53.531Z,19.03
2018-12-09T20:59:21.032Z,7.67
2018-12-09T21:01:48.520Z,7.17
2018-12-09T21:04:16.006Z,14.07
2018-12-09T21:06:43.605Z,10.40
2018-12-09T21:09:11.167Z,11.13
2018-12-09T21:11:38.697Z,11.73
2018-12-09T21:14:07.073Z,13.77
2018-12-09T21:16:35.355Z,12.93
2018-12-09T21:19:02.949Z,13.77
2018-12-09T21:21:31.398Z,12.10
2018-12-09T21:23:59.005Z,10.17
2018-12-09T21:26:26.499Z,11.10
2018-12-09T21:28:54.015Z,14.67
2018-12-09T21:31:21.525Z,12.47
2018-12-09T21:33:49.041Z,14.47
2018-12-09T21:36:16.524Z,15.27
2018-12-09T21:38:44.036Z,15.03
2018-12-09T21:41:11.546Z,11.73
2018-12-09T21:43:39.059Z,11.47
2018-12-09T21:46:06.562Z,12.37
2018-12-09T21:48:34.086Z,15.20
2018-12-09T21:51:01.560Z,14.07
2018-12-09T21:53:29.085Z,13.23
2018-12-09T21:55:56.616Z,12.87
2018-12-09T21:58:24.178Z,15.63
2018-12-09T22:00:51.765Z,16.83
2018-12-09T22:03:19.284Z,10.57
2018-12-09T22:05:46.779Z,12.47
2018-12-09T22:08:14.271Z,13.70
2018-12-09T22:10:41.753Z,15.53
2018-12-09T22:13:09.253Z,16.17
2018-12-09T22:15:36.799Z,17.83
2018-12-09T22:18:04.411Z,14.07
2018-12-09T22:20:31.927Z,17.10
2018-12-09T22:22:59.428Z,13.20
2018-12-09T22:25:28.365Z,17.57
2018-12-09T22:27:55.901Z,17.03
2018-12-09T22:30:23.421Z,17.97
2018-12-09T22:32:50.912Z,16.10
2018-12-09T22:35:18.443Z,13.27
2018-12-09T22:37:45.988Z,16.83
2018-12-09T22:40:13.831Z,18.17
2018-12-09T22:42:41.341Z,12.93
2018-12-09T22:45:08.938Z,15.63
2018-12-09T22:47:36.451Z,11.43
2018-12-09T22:50:04.078Z,12.70
2018-12-09T22:52:31.609Z,12.20
2018-12-09T22:54:59.101Z,9.77
2018-12-09T22:57:26.608Z,10.57
2018-12-09T22:59:54.115Z,8.23
2018-12-09T23:02:27.412Z,6.37
2018-12-09T23:04:55.723Z,8.20
2018-12-09T23:07:42.482Z,13.37
2018-12-09T23:10:10.086Z,9.53
2018-12-09T23:12:37.575Z,12.63
2018-12-09T23:15:05.289Z,11.70
2018-12-09T23:17:32.793Z,10.50
2018-12-09T23:20:00.336Z,13.23
2018-12-09T23:22:27.857Z,13.23
2018-12-09T23:24:55.383Z,8.10
2018-12-09T23:27:22.905Z,10.43
2018-12-09T23:30:06.946Z,7.70
2018-12-09T23:32:34.467Z,7.70
2018-12-09T23:35:01.987Z,9.30
2018-12-09T23:37:29.543Z,10.20
2018-12-09T23:39:57.103Z,9.70
2018-12-09T23:42:24.672Z,12.37
2018-12-09T23:44:52.227Z,6.83
2018-12-09T23:47:19.762Z,6.30
2018-12-09T23:49:47.629Z,8.70
2018-12-09T23:52:18.814Z,11.17
2018-12-09T23:54:46.301Z,10.17
2018-12-09T23:57:13.795Z,5.87
2018-12-09T23:59:41.322Z,8.37
